Time;durP1;ratioP1;P1;durP2;ratioP2;P2;SDS_P1;SDS_P2;PMS_P1;PMS_P2;Temp;Humidity;BMP_temperature;BMP_pressure;BME280_temperature;BME280_humidity;BME280_pressure;Samples;Min_cycle;Max_cycle;Signal;HPM_P1;HPM_P2
2023/06/23 00:01:41;;;;;;;19.85;14.52;;;;;;;;;;5051252;28;20009;-71
2023/06/23 00:04:06;;;;;;;20.50;12.67;;;;;;;;;;5053133;28;20025;-71
2023/06/23 00:06:32;;;;;;;28.73;12.65;;;;;;;;;;5051373;28;20298;-71
2023/06/23 00:08:57;;;;;;;24.27;13.02;;;;;;;;;;5049637;28;20146;-71
2023/06/23 00:11:22;;;;;;;21.70;12.33;;;;;;;;;;5045116;28;20031;-71
2023/06/23 00:13:47;;;;;;;23.73;13.03;;;;;;;;;;5042870;28;20279;-71
2023/06/23 00:16:12;;;;;;;21.20;13.93;;;;;;;;;;5051304;28;20287;-71
2023/06/23 00:18:41;;;;;;;22.83;13.20;;;;;;;;;;5051804;28;20818;-71
2023/06/23 00:21:07;;;;;;;20.75;13.77;;;;;;;;;;5048815;28;20481;-71
2023/06/23 00:23:33;;;;;;;23.92;12.68;;;;;;;;;;5050250;28;20020;-71
2023/06/23 00:25:58;;;;;;;23.23;13.23;;;;;;;;;;5047625;28;20036;-71
2023/06/23 00:28:25;;;;;;;26.15;13.35;;;;;;;;;;5050438;28;20048;-71
2023/06/23 00:30:50;;;;;;;22.95;12.13;;;;;;;;;;5052427;28;20154;-71
2023/06/23 00:33:16;;;;;;;25.83;11.93;;;;;;;;;;5049549;28;20021;-71
2023/06/23 00:35:41;;;;;;;26.35;14.23;;;;;;;;;;5048880;28;20156;-71
2023/06/23 00:38:07;;;;;;;22.90;12.97;;;;;;;;;;5050778;28;20028;-71
2023/06/23 00:40:33;;;;;;;21.52;12.93;;;;;;;;;;5051944;28;20779;-71
2023/06/23 00:42:58;;;;;;;23.25;12.52;;;;;;;;;;5051301;28;20029;-71
2023/06/23 00:45:23;;;;;;;24.07;12.57;;;;;;;;;;5051441;28;20393;-71
2023/06/23 00:47:49;;;;;;;20.20;11.55;;;;;;;;;;5049846;28;20271;-71
2023/06/23 00:50:15;;;;;;;21.23;12.05;;;;;;;;;;5050026;28;20488;-71
2023/06/23 00:52:50;;;;;;;18.90;10.63;;;;;;;;;;5051102;28;20017;-71
2023/06/23 00:55:22;;;;;;;23.48;11.00;;;;;;;;;;5051923;28;20075;-71
2023/06/23 00:57:48;;;;;;;18.48;11.02;;;;;;;;;;5049856;28;20389;-71
2023/06/23 01:00:17;;;;;;;19.20;10.57;;;;;;;;;;5051943;28;20352;-71
2023/06/23 01:02:43;;;;;;;20.40;11.32;;;;;;;;;;5050598;28;20052;-71
2023/06/23 01:05:09;;;;;;;26.58;10.68;;;;;;;;;;5051870;28;20021;-71
2023/06/23 01:07:49;;;;;;;21.15;10.88;;;;;;;;;;5050496;28;20472;-71
2023/06/23 01:10:31;;;;;;;19.73;9.90;;;;;;;;;;5049624;28;20025;-71
2023/06/23 01:13:01;;;;;;;20.88;9.45;;;;;;;;;;5050110;28;20037;-71
2023/06/23 01:15:29;;;;;;;15.80;8.50;;;;;;;;;;5050834;28;20470;-71
2023/06/23 01:18:17;;;;;;;15.80;8.70;;;;;;;;;;5049793;28;20123;-71
2023/06/23 01:20:46;;;;;;;21.02;10.05;;;;;;;;;;5031053;28;20025;-71
2023/06/23 01:23:20;;;;;;;20.38;9.73;;;;;;;;;;5050545;28;20005;-71
2023/06/23 01:25:48;;;;;;;18.30;9.77;;;;;;;;;;5051345;28;20021;-71
2023/06/23 01:28:13;;;;;;;15.23;8.85;;;;;;;;;;5047616;28;20044;-71
2023/06/23 01:30:40;;;;;;;18.30;8.85;;;;;;;;;;5050795;28;20615;-71
2023/06/23 01:33:15;;;;;;;24.55;9.52;;;;;;;;;;5039412;28;20032;-71
2023/06/23 01:35:43;;;;;;;15.70;8.38;;;;;;;;;;5049871;28;20017;-71
2023/06/23 01:38:15;;;;;;;16.88;8.73;;;;;;;;;;5050394;28;20211;-71
2023/06/23 01:40:41;;;;;;;19.45;9.32;;;;;;;;;;5050158;28;20478;-71
2023/06/23 01:43:08;;;;;;;17.85;8.10;;;;;;;;;;5045919;28;20029;-71
2023/06/23 01:45:34;;;;;;;19.95;9.35;;;;;;;;;;5047160;28;20021;-71
2023/06/23 01:48:02;;;;;;;23.67;8.95;;;;;;;;;;5049599;28;20096;-71
2023/06/23 01:50:28;;;;;;;14.80;8.00;;;;;;;;;;5050363;28;20020;-71
2023/06/23 01:52:54;;;;;;;16.25;7.28;;;;;;;;;;5049484;28;20417;-71
2023/06/23 01:55:21;;;;;;;13.60;7.07;;;;;;;;;;5049937;28;20489;-71
2023/06/23 01:57:47;;;;;;;21.63;7.65;;;;;;;;;;5048538;28;20025;-71
2023/06/23 02:00:15;;;;;;;15.13;8.52;;;;;;;;;;5050686;28;20041;-71
2023/06/23 02:02:42;;;;;;;24.23;7.13;;;;;;;;;;5050074;28;20028;-71
2023/06/23 02:05:08;;;;;;;14.45;7.45;;;;;;;;;;5048781;28;20123;-71
2023/06/23 02:07:34;;;;;;;16.35;7.53;;;;;;;;;;5049803;28;20064;-71
2023/06/23 02:10:01;;;;;;;17.65;7.63;;;;;;;;;;5050733;28;20017;-71
2023/06/23 02:12:26;;;;;;;24.67;7.50;;;;;;;;;;5045528;28;20017;-71
2023/06/23 02:14:51;;;;;;;15.90;6.68;;;;;;;;;;5050475;28;20504;-71
2023/06/23 02:17:17;;;;;;;15.23;8.30;;;;;;;;;;5049415;28;20017;-71
2023/06/23 02:19:45;;;;;;;20.20;7.68;;;;;;;;;;5050741;28;20062;-70
2023/06/23 02:22:11;;;;;;;14.40;7.53;;;;;;;;;;5050723;28;20017;-70
2023/06/23 02:24:37;;;;;;;17.50;7.88;;;;;;;;;;5050729;28;20056;-70
2023/06/23 02:27:03;;;;;;;22.20;8.40;;;;;;;;;;5047627;28;20521;-70
2023/06/23 02:29:28;;;;;;;13.90;7.25;;;;;;;;;;5047486;28;20079;-70
2023/06/23 02:31:53;;;;;;;14.50;7.18;;;;;;;;;;5046319;28;20036;-70
2023/06/23 02:34:18;;;;;;;17.40;8.23;;;;;;;;;;5047958;28;20025;-70
2023/06/23 02:36:46;;;;;;;16.27;7.93;;;;;;;;;;5050264;28;20307;-70
2023/06/23 02:39:12;;;;;;;13.30;8.02;;;;;;;;;;5046903;28;20036;-70
2023/06/23 02:41:38;;;;;;;17.98;7.97;;;;;;;;;;5048949;28;20078;-70
2023/06/23 02:44:09;;;;;;;16.40;8.38;;;;;;;;;;5049107;28;20374;-70
2023/06/23 02:46:38;;;;;;;21.73;9.15;;;;;;;;;;5046559;28;20370;-70
2023/06/23 02:49:05;;;;;;;19.20;8.05;;;;;;;;;;5048161;28;20533;-71
2023/06/23 02:51:31;;;;;;;23.92;8.05;;;;;;;;;;5046120;28;20114;-71
2023/06/23 02:54:00;;;;;;;16.25;7.70;;;;;;;;;;5047081;28;20060;-71
2023/06/23 02:56:27;;;;;;;17.58;7.60;;;;;;;;;;5049832;28;20370;-70
2023/06/23 02:58:57;;;;;;;16.30;7.35;;;;;;;;;;5044660;28;20029;-71
2023/06/23 03:01:23;;;;;;;13.90;7.93;;;;;;;;;;5048142;28;20017;-71
2023/06/23 03:03:48;;;;;;;14.65;7.28;;;;;;;;;;5047976;28;20158;-71
2023/06/23 03:06:20;;;;;;;20.80;7.72;;;;;;;;;;5046019;28;20028;-71
2023/06/23 03:08:47;;;;;;;17.08;7.88;;;;;;;;;;5048842;28;20021;-71
2023/06/23 03:11:14;;;;;;;17.80;7.00;;;;;;;;;;5049540;28;20009;-71
2023/06/23 03:13:39;;;;;;;22.52;7.13;;;;;;;;;;5046917;28;20421;-71
2023/06/23 03:16:08;;;;;;;17.88;7.43;;;;;;;;;;5049047;28;20021;-71
2023/06/23 03:18:34;;;;;;;13.85;6.90;;;;;;;;;;5048715;28;20020;-70
2023/06/23 03:21:02;;;;;;;12.40;6.90;;;;;;;;;;5048157;28;20099;-70
2023/06/23 03:23:28;;;;;;;13.82;7.90;;;;;;;;;;5047618;28;20036;-71
2023/06/23 03:25:54;;;;;;;18.30;7.38;;;;;;;;;;5049963;28;20017;-71
2023/06/23 03:28:25;;;;;;;14.25;8.57;;;;;;;;;;5047709;28;20054;-71
2023/06/23 03:30:52;;;;;;;26.85;8.52;;;;;;;;;;5048599;28;20013;-71
2023/06/23 03:33:22;;;;;;;19.85;8.82;;;;;;;;;;5048174;28;20017;-70
2023/06/23 03:35:47;;;;;;;15.02;8.45;;;;;;;;;;5048363;28;20044;-70
2023/06/23 03:38:17;;;;;;;17.75;10.30;;;;;;;;;;5049741;28;20021;-70
2023/06/23 03:40:47;;;;;;;19.75;9.00;;;;;;;;;;5049767;28;20671;-70
2023/06/23 03:43:20;;;;;;;18.58;10.40;;;;;;;;;;5052624;28;20083;-70
2023/06/23 03:45:47;;;;;;;23.05;9.95;;;;;;;;;;5053485;28;20013;-70
2023/06/23 03:48:13;;;;;;;20.60;10.35;;;;;;;;;;5050578;28;20017;-70
2023/06/23 03:50:39;;;;;;;19.92;10.00;;;;;;;;;;5052728;28;20028;-70
2023/06/23 03:53:06;;;;;;;19.17;10.13;;;;;;;;;;5053077;28;20024;-72
2023/06/23 03:55:32;;;;;;;21.27;10.57;;;;;;;;;;5053232;28;20059;-70
2023/06/23 03:57:59;;;;;;;20.20;11.07;;;;;;;;;;5051873;28;20025;-70
2023/06/23 04:00:25;;;;;;;23.42;10.13;;;;;;;;;;5049513;28;20029;-70
2023/06/23 04:02:51;;;;;;;18.08;10.95;;;;;;;;;;5052851;28;20104;-70
2023/06/23 04:05:17;;;;;;;23.40;10.93;;;;;;;;;;5053019;28;20100;-70
2023/06/23 04:07:44;;;;;;;21.10;10.43;;;;;;;;;;5053202;28;20541;-70
2023/06/23 04:10:10;;;;;;;22.63;11.00;;;;;;;;;;5050846;28;20040;-70
2023/06/23 04:12:36;;;;;;;19.00;9.82;;;;;;;;;;5050974;28;20025;-70
2023/06/23 04:15:03;;;;;;;21.38;10.80;;;;;;;;;;5050922;28;20021;-70
2023/06/23 04:17:29;;;;;;;23.20;11.13;;;;;;;;;;5051832;28;20388;-70
2023/06/23 04:19:56;;;;;;;24.77;10.85;;;;;;;;;;5052722;28;20043;-70
2023/06/23 04:22:22;;;;;;;23.60;11.45;;;;;;;;;;5050422;28;20044;-70
2023/06/23 04:24:48;;;;;;;20.23;9.98;;;;;;;;;;5049909;28;20060;-70
2023/06/23 04:27:15;;;;;;;22.77;11.02;;;;;;;;;;5047655;28;20088;-70
2023/06/23 04:29:41;;;;;;;22.50;11.35;;;;;;;;;;5048688;28;20025;-70
2023/06/23 04:32:07;;;;;;;28.30;11.10;;;;;;;;;;5050952;28;20450;-70
2023/06/23 04:34:32;;;;;;;28.15;11.60;;;;;;;;;;5049830;28;20057;-70
2023/06/23 04:37:27;;;;;;;21.40;11.43;;;;;;;;;;5050198;28;21361;-70
2023/06/23 04:39:58;;;;;;;24.70;11.50;;;;;;;;;;5018646;28;20295;-71
2023/06/23 04:42:26;;;;;;;23.58;12.93;;;;;;;;;;5051571;28;20013;-71
2023/06/23 04:44:52;;;;;;;22.58;11.98;;;;;;;;;;5052404;28;20147;-70
2023/06/23 04:47:20;;;;;;;22.48;11.95;;;;;;;;;;5049932;28;20067;-70
2023/06/23 04:49:45;;;;;;;24.95;12.88;;;;;;;;;;5049553;28;20017;-70
2023/06/23 04:52:11;;;;;;;30.27;12.30;;;;;;;;;;5050816;28;20071;-70
2023/06/23 04:54:42;;;;;;;20.55;10.85;;;;;;;;;;5051359;28;20382;-70
2023/06/23 04:57:07;;;;;;;;;;;;;;;;;;5046282;28;20512;-71
2023/06/23 04:59:34;;;;;;;26.05;13.27;;;;;;;;;;5048526;28;20278;-70
2023/06/23 05:02:01;;;;;;;27.50;12.98;;;;;;;;;;5046840;28;20047;-70
2023/06/23 05:04:28;;;;;;;36.35;13.32;;;;;;;;;;5050279;28;20027;-70
2023/06/23 05:06:54;;;;;;;35.22;12.80;;;;;;;;;;5050104;28;20017;-70
2023/06/23 05:09:21;;;;;;;28.08;12.77;;;;;;;;;;5050179;28;20021;-70
2023/06/23 05:11:47;;;;;;;25.98;13.00;;;;;;;;;;5046490;28;20017;-70
2023/06/23 05:14:14;;;;;;;23.05;11.98;;;;;;;;;;5050503;28;20028;-70
2023/06/23 05:16:42;;;;;;;27.85;13.70;;;;;;;;;;5051702;28;20026;-70
2023/06/23 05:19:09;;;;;;;29.45;14.57;;;;;;;;;;5042303;28;20017;-70
2023/06/23 05:21:34;;;;;;;23.38;13.45;;;;;;;;;;5050729;28;20370;-70
2023/06/23 05:24:00;;;;;;;24.83;13.55;;;;;;;;;;5049451;28;20111;-70
2023/06/23 05:26:26;;;;;;;24.65;13.60;;;;;;;;;;5049501;28;20032;-70
2023/06/23 05:28:55;;;;;;;29.67;14.63;;;;;;;;;;5047911;28;20020;-70
2023/06/23 05:31:21;;;;;;;22.35;13.52;;;;;;;;;;5048884;28;20176;-70
2023/06/23 05:33:48;;;;;;;26.00;14.13;;;;;;;;;;5045592;28;20032;-70
2023/06/23 05:36:13;;;;;;;28.38;14.55;;;;;;;;;;5046271;28;20032;-70
2023/06/23 05:38:41;;;;;;;28.20;13.35;;;;;;;;;;5049099;28;20013;-70
2023/06/23 05:41:06;;;;;;;37.80;15.32;;;;;;;;;;5048192;28;20025;-70
2023/06/23 05:43:31;;;;;;;32.77;14.97;;;;;;;;;;5046631;28;20036;-70
2023/06/23 05:45:57;;;;;;;28.90;14.07;;;;;;;;;;5046202;28;20318;-70
2023/06/23 05:48:27;;;;;;;32.30;14.80;;;;;;;;;;5048827;28;20021;-70
2023/06/23 05:50:54;;;;;;;25.58;14.98;;;;;;;;;;5048313;28;20036;-70
2023/06/23 05:53:20;;;;;;;30.13;14.35;;;;;;;;;;5047668;28;20100;-70
2023/06/23 05:56:21;;;;;;;37.22;16.08;;;;;;;;;;5045955;28;20032;-70
2023/06/23 05:58:47;;;;;;;25.83;14.40;;;;;;;;;;5004211;28;20029;-70
2023/06/23 06:01:14;;;;;;;27.58;14.60;;;;;;;;;;5038685;28;20025;-70
2023/06/23 06:03:42;;;;;;;30.15;15.15;;;;;;;;;;5049299;28;20032;-70
2023/06/23 06:06:07;;;;;;;29.23;15.40;;;;;;;;;;5047669;28;20041;-70
2023/06/23 06:08:34;;;;;;;28.38;16.63;;;;;;;;;;5050722;28;20052;-70
2023/06/23 06:11:00;;;;;;;35.28;18.05;;;;;;;;;;5045523;28;20132;-70
2023/06/23 06:13:26;;;;;;;34.28;17.15;;;;;;;;;;5047510;28;20112;-70
2023/06/23 06:15:52;;;;;;;35.63;19.08;;;;;;;;;;5044996;28;20035;-71
2023/06/23 06:18:18;;;;;;;34.67;17.95;;;;;;;;;;5047730;28;20017;-71
2023/06/23 06:20:44;;;;;;;38.38;18.48;;;;;;;;;;5049031;28;20147;-71
2023/06/23 06:23:11;;;;;;;34.35;17.98;;;;;;;;;;5045993;28;20082;-71
2023/06/23 06:25:37;;;;;;;34.13;18.88;;;;;;;;;;5049177;28;20021;-71
2023/06/23 06:28:07;;;;;;;27.15;17.08;;;;;;;;;;5049831;28;20427;-71
2023/06/23 06:30:34;;;;;;;36.58;19.27;;;;;;;;;;5045321;28;20037;-70
2023/06/23 06:33:01;;;;;;;30.67;18.02;;;;;;;;;;5050011;28;20079;-70
2023/06/23 06:35:27;;;;;;;34.47;18.08;;;;;;;;;;5050295;28;20024;-70
2023/06/23 06:37:53;;;;;;;29.83;19.10;;;;;;;;;;5040601;28;20023;-70
2023/06/23 06:40:21;;;;;;;30.55;19.15;;;;;;;;;;5043696;28;20013;-71
2023/06/23 06:42:47;;;;;;;29.38;17.75;;;;;;;;;;5044161;28;20021;-71
2023/06/23 06:45:12;;;;;;;31.25;17.52;;;;;;;;;;5042043;28;20094;-71
2023/06/23 06:47:40;;;;;;;36.20;20.08;;;;;;;;;;5046088;28;20052;-71
2023/06/23 06:50:06;;;;;;;34.85;18.50;;;;;;;;;;5048742;28;20075;-71
2023/06/23 06:52:32;;;;;;;34.78;18.25;;;;;;;;;;5041072;28;20358;-71
2023/06/23 06:54:57;;;;;;;42.45;18.33;;;;;;;;;;5044691;28;20021;-71
2023/06/23 06:57:22;;;;;;;33.87;17.20;;;;;;;;;;5045198;28;20025;-71
2023/06/23 06:59:47;;;;;;;31.77;18.10;;;;;;;;;;5043984;28;20264;-70
2023/06/23 07:02:13;;;;;;;27.20;17.25;;;;;;;;;;5044457;28;20430;-71
2023/06/23 07:04:39;;;;;;;27.50;15.80;;;;;;;;;;5044916;28;20479;-71
2023/06/23 07:07:04;;;;;;;24.65;15.15;;;;;;;;;;5046559;28;20036;-71
2023/06/23 07:09:30;;;;;;;31.55;16.92;;;;;;;;;;5045621;28;20021;-71
2023/06/23 07:11:57;;;;;;;24.57;16.07;;;;;;;;;;5045305;28;20031;-71
2023/06/23 07:14:22;;;;;;;29.63;15.88;;;;;;;;;;5044997;28;20272;-71
2023/06/23 07:16:47;;;;;;;22.13;14.50;;;;;;;;;;5046990;28;20021;-70
2023/06/23 07:19:13;;;;;;;25.93;14.57;;;;;;;;;;5048639;28;20266;-71
2023/06/23 07:21:38;;;;;;;31.95;15.60;;;;;;;;;;5050095;28;20263;-71
2023/06/23 07:24:03;;;;;;;28.67;15.75;;;;;;;;;;5051361;28;20013;-71
2023/06/23 07:26:28;;;;;;;24.05;15.27;;;;;;;;;;5051215;28;20032;-71
2023/06/23 07:28:54;;;;;;;31.70;17.93;;;;;;;;;;5047240;28;20032;-71
2023/06/23 07:31:19;;;;;;;23.15;14.63;;;;;;;;;;5048632;28;20107;-71
2023/06/23 07:33:45;;;;;;;26.97;13.80;;;;;;;;;;5048215;28;20082;-71
2023/06/23 07:36:10;;;;;;;23.60;12.25;;;;;;;;;;5051989;28;20309;-71
2023/06/23 07:38:35;;;;;;;24.85;14.05;;;;;;;;;;5051092;28;20021;-70
2023/06/23 07:41:00;;;;;;;39.42;14.95;;;;;;;;;;5048497;28;20036;-70
2023/06/23 07:43:26;;;;;;;32.30;17.95;;;;;;;;;;5047718;28;20021;-70
2023/06/23 07:45:51;;;;;;;34.70;18.02;;;;;;;;;;5050771;28;20021;-70
2023/06/23 07:48:16;;;;;;;30.10;17.67;;;;;;;;;;5049176;28;20044;-70
2023/06/23 07:50:43;;;;;;;30.20;16.77;;;;;;;;;;5047936;28;20067;-70
2023/06/23 07:53:08;;;;;;;30.42;16.58;;;;;;;;;;5046814;28;20268;-70
2023/06/23 07:55:33;;;;;;;26.85;15.63;;;;;;;;;;5042087;28;20721;-70
2023/06/23 07:57:59;;;;;;;24.67;14.93;;;;;;;;;;5044972;28;20385;-70
2023/06/23 08:00:24;;;;;;;33.30;15.57;;;;;;;;;;5049316;28;20036;-70
2023/06/23 08:02:49;;;;;;;30.45;15.18;;;;;;;;;;5050345;28;20529;-70
2023/06/23 08:05:15;;;;;;;26.77;13.53;;;;;;;;;;5049708;28;20021;-70
2023/06/23 08:07:40;;;;;;;24.15;13.68;;;;;;;;;;5052548;28;20486;-70
2023/06/23 08:10:05;;;;;;;22.73;13.20;;;;;;;;;;5050447;28;20477;-70
2023/06/23 08:12:30;;;;;;;28.73;13.73;;;;;;;;;;5051821;28;20082;-70
2023/06/23 08:14:55;;;;;;;24.30;12.83;;;;;;;;;;5049409;28;20429;-70
2023/06/23 08:17:20;;;;;;;23.00;12.37;;;;;;;;;;5051465;28;20074;-70
2023/06/23 08:19:46;;;;;;;26.67;12.43;;;;;;;;;;5052632;28;20390;-70
2023/06/23 08:22:11;;;;;;;24.00;11.37;;;;;;;;;;5049676;28;20041;-70
2023/06/23 08:24:36;;;;;;;20.88;12.18;;;;;;;;;;5049517;28;20389;-70
2023/06/23 08:27:01;;;;;;;20.87;11.70;;;;;;;;;;5047775;28;20067;-70
2023/06/23 08:29:26;;;;;;;26.83;10.30;;;;;;;;;;5049435;28;20412;-70
2023/06/23 08:31:52;;;;;;;16.92;10.32;;;;;;;;;;5052225;28;20013;-70
2023/06/23 08:34:18;;;;;;;13.10;9.48;;;;;;;;;;5052407;28;20029;-69
2023/06/23 08:36:43;;;;;;;19.52;7.60;;;;;;;;;;5050220;28;20100;-69
2023/06/23 08:39:08;;;;;;;10.48;6.78;;;;;;;;;;5049996;28;20025;-69
2023/06/23 08:41:34;;;;;;;20.00;8.73;;;;;;;;;;5052251;28;20025;-69
2023/06/23 08:44:00;;;;;;;12.20;7.28;;;;;;;;;;5050682;28;20143;-69
2023/06/23 08:46:29;;;;;;;12.77;7.60;;;;;;;;;;5050771;28;20501;-69
2023/06/23 08:48:55;;;;;;;12.25;7.28;;;;;;;;;;5051376;28;20035;-69
2023/06/23 08:51:20;;;;;;;22.05;7.82;;;;;;;;;;5050083;28;20028;-69
2023/06/23 08:53:46;;;;;;;17.40;7.63;;;;;;;;;;5049925;28;20029;-69
2023/06/23 08:56:12;;;;;;;14.93;6.40;;;;;;;;;;5052267;28;20075;-69
2023/06/23 08:58:38;;;;;;;19.30;7.97;;;;;;;;;;5050722;28;20026;-70
2023/06/23 09:01:05;;;;;;;11.55;7.00;;;;;;;;;;5050986;28;20013;-70
2023/06/23 09:03:31;;;;;;;17.95;6.85;;;;;;;;;;5047081;28;20013;-70
2023/06/23 09:05:56;;;;;;;15.65;7.45;;;;;;;;;;5050203;28;20517;-70
2023/06/23 09:08:21;;;;;;;16.40;6.37;;;;;;;;;;5049019;28;20024;-69
2023/06/23 09:10:46;;;;;;;12.60;6.75;;;;;;;;;;5049776;28;20459;-69
2023/06/23 09:13:24;;;;;;;16.60;6.50;;;;;;;;;;5048971;28;20367;-69
2023/06/23 09:15:50;;;;;;;10.93;7.10;;;;;;;;;;5050096;28;20025;-69
2023/06/23 09:18:15;;;;;;;11.93;6.70;;;;;;;;;;5050470;28;20481;-69
2023/06/23 09:20:42;;;;;;;12.23;6.28;;;;;;;;;;5046177;28;20573;-69
2023/06/23 09:23:08;;;;;;;9.38;6.50;;;;;;;;;;5048517;28;20020;-69
2023/06/23 09:25:42;;;;;;;12.45;5.72;;;;;;;;;;5050542;28;20559;-69
2023/06/23 09:28:19;;;;;;;9.07;5.40;;;;;;;;;;5044210;28;20025;-69
2023/06/23 09:30:44;;;;;;;9.45;5.13;;;;;;;;;;5045878;28;20630;-69
2023/06/23 09:33:09;;;;;;;9.50;5.13;;;;;;;;;;5049150;28;20028;-69
2023/06/23 09:35:35;;;;;;;7.15;4.13;;;;;;;;;;5047616;28;20108;-70
2023/06/23 09:38:01;;;;;;;7.40;4.63;;;;;;;;;;5049956;28;20442;-70
2023/06/23 09:40:27;;;;;;;8.43;4.43;;;;;;;;;;5046193;28;20028;-70
2023/06/23 09:42:56;;;;;;;14.55;4.65;;;;;;;;;;5049475;28;20103;-70
2023/06/23 09:45:22;;;;;;;14.45;5.00;;;;;;;;;;5047538;28;20036;-70
2023/06/23 09:47:49;;;;;;;13.30;6.43;;;;;;;;;;5048405;28;20029;-70
2023/06/23 09:50:15;;;;;;;13.52;5.10;;;;;;;;;;5048724;28;20017;-70
2023/06/23 09:52:40;;;;;;;7.93;4.38;;;;;;;;;;5049937;28;20025;-70
2023/06/23 09:55:06;;;;;;;7.73;5.27;;;;;;;;;;5045058;28;20416;-70
2023/06/23 09:57:31;;;;;;;9.45;5.75;;;;;;;;;;5044186;28;20017;-70
2023/06/23 09:59:58;;;;;;;11.90;5.88;;;;;;;;;;5046545;28;20100;-70
2023/06/23 10:02:27;;;;;;;9.90;5.55;;;;;;;;;;5046554;28;20422;-70
2023/06/23 10:04:59;;;;;;;8.20;4.60;;;;;;;;;;5045295;28;20478;-70
2023/06/23 10:07:27;;;;;;;10.75;5.00;;;;;;;;;;5046851;28;20310;-70
2023/06/23 10:09:56;;;;;;;8.52;4.50;;;;;;;;;;5049730;28;20495;-70
2023/06/23 10:12:22;;;;;;;9.03;5.27;;;;;;;;;;5046558;28;20865;-70
2023/06/23 10:14:51;;;;;;;17.83;4.78;;;;;;;;;;5048372;28;20292;-70
2023/06/23 10:17:16;;;;;;;11.55;4.97;;;;;;;;;;5048438;28;20486;-70
2023/06/23 10:19:46;;;;;;;14.13;5.40;;;;;;;;;;5050299;28;20127;-70
2023/06/23 10:22:18;;;;;;;9.48;4.88;;;;;;;;;;5048643;28;20021;-70
2023/06/23 10:24:49;;;;;;;10.95;5.50;;;;;;;;;;5047646;28;20418;-70
2023/06/23 10:27:16;;;;;;;14.07;6.68;;;;;;;;;;5045858;28;20056;-70
2023/06/23 10:29:44;;;;;;;11.70;6.35;;;;;;;;;;5046831;28;20071;-70
2023/06/23 10:32:11;;;;;;;10.77;5.53;;;;;;;;;;5048467;28;20017;-70
2023/06/23 10:34:39;;;;;;;12.07;5.70;;;;;;;;;;5046267;28;20020;-70
2023/06/23 10:37:05;;;;;;;10.02;5.57;;;;;;;;;;5048279;28;20051;-70
2023/06/23 10:39:31;;;;;;;10.88;5.53;;;;;;;;;;5047822;28;20020;-70
2023/06/23 10:41:58;;;;;;;10.43;6.20;;;;;;;;;;5049200;28;20560;-70
2023/06/23 10:44:23;;;;;;;10.82;6.47;;;;;;;;;;5048274;28;20032;-70
2023/06/23 10:46:49;;;;;;;13.18;5.60;;;;;;;;;;5047628;28;20028;-70
2023/06/23 10:49:15;;;;;;;11.38;6.03;;;;;;;;;;5049316;28;20500;-71
2023/06/23 10:51:40;;;;;;;10.15;5.10;;;;;;;;;;5047696;28;20078;-70
2023/06/23 10:54:07;;;;;;;13.07;5.55;;;;;;;;;;5047888;28;20044;-70
2023/06/23 10:56:33;;;;;;;11.88;5.45;;;;;;;;;;5048119;28;20017;-70
2023/06/23 10:58:59;;;;;;;10.23;6.38;;;;;;;;;;5048711;28;20476;-70
2023/06/23 11:01:26;;;;;;;10.63;5.80;;;;;;;;;;5050406;28;20024;-70
2023/06/23 11:03:52;;;;;;;12.98;4.88;;;;;;;;;;5048256;28;20024;-71
2023/06/23 11:06:25;;;;;;;7.88;3.70;;;;;;;;;;5048809;28;20021;-71
2023/06/23 11:08:50;;;;;;;6.75;4.13;;;;;;;;;;5049100;28;20021;-71
2023/06/23 11:11:16;;;;;;;8.27;5.05;;;;;;;;;;5046841;28;20486;-70
2023/06/23 11:13:51;;;;;;;7.72;5.18;;;;;;;;;;5047175;28;20547;-70
2023/06/23 11:16:28;;;;;;;8.25;5.10;;;;;;;;;;5046407;28;20363;-70
2023/06/23 11:18:54;;;;;;;9.75;4.35;;;;;;;;;;5048528;28;20021;-70
2023/06/23 11:21:29;;;;;;;6.82;4.53;;;;;;;;;;5049891;28;20092;-70
2023/06/23 11:24:14;;;;;;;8.38;4.88;;;;;;;;;;5046697;28;20020;-70
2023/06/23 11:26:43;;;;;;;10.95;4.63;;;;;;;;;;5047945;28;20405;-71
2023/06/23 11:29:12;;;;;;;7.90;3.90;;;;;;;;;;5045644;28;20534;-70
2023/06/23 11:31:56;;;;;;;5.18;3.45;;;;;;;;;;5045342;28;20107;-70
2023/06/23 11:34:23;;;;;;;6.95;4.13;;;;;;;;;;5048230;28;20482;-70
2023/06/23 11:36:49;;;;;;;7.22;4.40;;;;;;;;;;5045649;28;20070;-72
2023/06/23 11:39:14;;;;;;;8.05;4.10;;;;;;;;;;5046908;28;20048;-71
2023/06/23 11:41:41;;;;;;;9.10;3.40;;;;;;;;;;5046579;28;20104;-71
2023/06/23 11:44:07;;;;;;;6.05;3.65;;;;;;;;;;5045611;28;20270;-71
2023/06/23 11:46:32;;;;;;;5.93;3.17;;;;;;;;;;5047718;28;20025;-71
2023/06/23 11:49:07;;;;;;;11.23;4.47;;;;;;;;;;5049356;28;20136;-71
2023/06/23 11:51:34;;;;;;;9.02;4.13;;;;;;;;;;5042322;28;20048;-71
2023/06/23 11:53:59;;;;;;;9.73;4.97;;;;;;;;;;5047502;28;20021;-71
2023/06/23 11:56:24;;;;;;;6.70;4.00;;;;;;;;;;5047341;28;20040;-71
2023/06/23 11:58:55;;;;;;;7.88;4.30;;;;;;;;;;5047552;28;20386;-71
2023/06/23 12:01:20;;;;;;;6.40;3.65;;;;;;;;;;5048467;28;20085;-71
2023/06/23 12:03:49;;;;;;;6.50;4.28;;;;;;;;;;5051981;28;20092;-71
2023/06/23 12:06:17;;;;;;;7.72;3.28;;;;;;;;;;5049734;28;20024;-71
2023/06/23 12:08:42;;;;;;;8.55;3.53;;;;;;;;;;5051999;28;20024;-71
2023/06/23 12:11:08;;;;;;;7.95;3.25;;;;;;;;;;5050948;28;20436;-72
2023/06/23 12:13:36;;;;;;;4.60;3.30;;;;;;;;;;5050714;28;20025;-71
2023/06/23 12:16:01;;;;;;;4.60;2.42;;;;;;;;;;5051142;28;20033;-71
2023/06/23 12:18:26;;;;;;;6.47;3.60;;;;;;;;;;5050121;28;20541;-71
2023/06/23 12:20:51;;;;;;;5.13;2.97;;;;;;;;;;5046666;28;20053;-71
2023/06/23 12:23:17;;;;;;;7.07;4.13;;;;;;;;;;5051185;28;20043;-71
2023/06/23 12:25:43;;;;;;;4.55;3.25;;;;;;;;;;5052818;28;20013;-71
2023/06/23 12:28:13;;;;;;;5.63;2.60;;;;;;;;;;5047676;28;20478;-71
2023/06/23 12:30:43;;;;;;;3.85;2.47;;;;;;;;;;5049388;28;20028;-71
2023/06/23 12:33:28;;;;;;;6.07;2.92;;;;;;;;;;5046999;28;20021;-71
2023/06/23 12:36:01;;;;;;;4.55;2.35;;;;;;;;;;5049275;28;20024;-71
2023/06/23 12:38:27;;;;;;;6.15;3.50;;;;;;;;;;5052368;28;20040;-71
2023/06/23 12:40:52;;;;;;;5.45;3.53;;;;;;;;;;5052571;28;20669;-70
2023/06/23 12:43:18;;;;;;;3.75;2.20;;;;;;;;;;5050936;28;20025;-71
2023/06/23 12:45:44;;;;;;;5.30;2.70;;;;;;;;;;5049086;28;20025;-71
2023/06/23 12:48:10;;;;;;;5.43;2.97;;;;;;;;;;5050744;28;20021;-71
2023/06/23 12:50:38;;;;;;;4.15;2.70;;;;;;;;;;5047719;28;20033;-71
2023/06/23 12:53:03;;;;;;;5.50;2.40;;;;;;;;;;5050573;28;20029;-71
2023/06/23 12:55:28;;;;;;;3.60;2.77;;;;;;;;;;5050977;28;20025;-71
2023/06/23 12:57:54;;;;;;;3.63;2.40;;;;;;;;;;5047182;28;20035;-71
2023/06/23 13:00:19;;;;;;;6.55;2.95;;;;;;;;;;5050252;28;20097;-71
2023/06/23 13:02:46;;;;;;;3.50;2.25;;;;;;;;;;5049040;28;20028;-71
2023/06/23 13:05:11;;;;;;;4.07;2.85;;;;;;;;;;5047708;28;20580;-71
2023/06/23 13:07:36;;;;;;;4.22;2.88;;;;;;;;;;5050803;28;20100;-71
2023/06/23 13:10:02;;;;;;;4.50;2.87;;;;;;;;;;5048689;28;20017;-72
2023/06/23 13:12:27;;;;;;;6.93;3.15;;;;;;;;;;5047527;28;20648;-71
2023/06/23 13:14:53;;;;;;;5.17;3.03;;;;;;;;;;5048895;28;20052;-71
2023/06/23 13:17:18;;;;;;;6.03;2.72;;;;;;;;;;5049857;28;20494;-71
2023/06/23 13:19:43;;;;;;;6.33;3.27;;;;;;;;;;5051292;28;20068;-72
2023/06/23 13:22:08;;;;;;;3.40;2.27;;;;;;;;;;5051576;28;20255;-71
2023/06/23 13:24:34;;;;;;;4.27;2.73;;;;;;;;;;5050550;28;20255;-71
2023/06/23 13:26:59;;;;;;;4.50;2.73;;;;;;;;;;5047413;28;20027;-71
2023/06/23 13:29:24;;;;;;;4.07;2.93;;;;;;;;;;5051031;28;20628;-71
2023/06/23 13:31:49;;;;;;;4.37;2.93;;;;;;;;;;5051351;28;20736;-71
2023/06/23 13:34:14;;;;;;;5.00;2.40;;;;;;;;;;5049075;28;20843;-72
2023/06/23 13:36:40;;;;;;;5.80;3.00;;;;;;;;;;5049301;28;20287;-71
2023/06/23 13:39:05;;;;;;;6.90;3.03;;;;;;;;;;5049725;28;20267;-71
2023/06/23 13:41:30;;;;;;;3.90;2.73;;;;;;;;;;5047993;28;20100;-71
2023/06/23 13:43:55;;;;;;;4.77;2.90;;;;;;;;;;5046507;28;20259;-72
2023/06/23 13:46:21;;;;;;;6.80;3.25;;;;;;;;;;5048219;28;20306;-71
2023/06/23 13:48:46;;;;;;;5.22;2.55;;;;;;;;;;5049524;28;20476;-71
2023/06/23 13:51:11;;;;;;;4.53;2.73;;;;;;;;;;5049687;28;20021;-71
2023/06/23 13:53:38;;;;;;;4.40;3.43;;;;;;;;;;5049932;28;20020;-72
2023/06/23 13:56:04;;;;;;;3.78;2.33;;;;;;;;;;5050811;28;20279;-71
2023/06/23 13:58:29;;;;;;;4.70;2.88;;;;;;;;;;5047978;28;20016;-71
2023/06/23 14:00:54;;;;;;;4.93;2.73;;;;;;;;;;5045661;28;20110;-71
2023/06/23 14:03:19;;;;;;;4.72;3.00;;;;;;;;;;5043678;28;20382;-72
2023/06/23 14:05:45;;;;;;;6.75;2.88;;;;;;;;;;5047615;28;20024;-71
2023/06/23 14:08:11;;;;;;;4.00;3.20;;;;;;;;;;5048235;28;20110;-72
2023/06/23 14:10:36;;;;;;;7.53;3.05;;;;;;;;;;5050190;28;20025;-72
2023/06/23 14:13:01;;;;;;;4.17;3.00;;;;;;;;;;5045589;28;20028;-71
2023/06/23 14:15:26;;;;;;;5.13;3.10;;;;;;;;;;5047567;28;20287;-71
2023/06/23 14:17:52;;;;;;;4.13;2.53;;;;;;;;;;5050655;28;20013;-72
2023/06/23 14:20:17;;;;;;;3.60;2.93;;;;;;;;;;5050649;28;20256;-72
2023/06/23 14:22:42;;;;;;;7.03;2.60;;;;;;;;;;5047420;28;20479;-72
2023/06/23 14:25:08;;;;;;;8.20;2.47;;;;;;;;;;5048189;28;20059;-72
2023/06/23 14:27:34;;;;;;;6.85;3.17;;;;;;;;;;5046959;28;20016;-72